Date,TemperatureHighF,TemperatureAvgF,TemperatureLowF,DewpointHighF,DewpointAvgF,DewpointLowF,HumidityHigh,HumidityAvg,HumidityLow,PressureMaxIn,PressureMinIn,WindSpeedMaxMPH,WindSpeedAvgMPH,GustSpeedMaxMPH,PrecipitationSumIn
2012-1-1,49,39,30,45,35,24,94,88,77,30.06,29.60,13,3,18,0.09
2012-1-2,30,27,23,26,24,16,95,89,73,30.09,29.87,15,3,18,0.00
2012-1-3,23,18,14,16,13,8,92,82,64,30.36,30.09,19,3,22,0.00
2012-1-4,32,24,14,25,17,12,91,76,59,30.31,29.96,9,1,13,0.01
2012-1-5,42,34,30,31,27,25,89,77,62,30.07,29.83,8,1,8,0.00
2012-1-6,54,44,36,38,34,27,79,67,51,29.83,29.75,9,2,13,0.00
2012-1-7,45,40,37,35,32,29,84,73,56,30.16,29.72,12,2,13,0.00
2012-1-8,38,33,28,32,26,23,85,76,58,30.38,30.16,7,1,11,0.00
2012-1-9,41,34,24,28,25,22,94,73,51,30.34,29.99,8,1,10,0.00
2012-1-10,48,36,29,34,29,27,93,77,55,30.09,29.98,7,0,9,0.00
2012-1-11,43,36,28,40,33,27,96,88,62,29.98,29.49,8,1,10,0.28
2012-1-12,44,40,26,43,39,24,100,96,91,29.49,29.35,12,1,14,0.06
2012-1-13,26,18,16,24,16,13,93,90,83,30.01,29.44,16,3,17,0.00
2012-1-14,22,20,18,19,17,16,93,89,85,30.28,30.01,9,1,12,0.00
2012-1-15,29,22,18,20,17,15,93,80,66,30.54,30.28,5,1,7,0.01
2012-1-16,42,36,19,40,30,14,94,82,62,30.47,29.93,9,3,14,0.07
2012-1-17,55,44,30,51,42,28,98,90,75,29.94,29.44,18,3,22,0.56
2012-1-18,30,22,14,28,17,12,95,81,58,30.27,29.94,10,2,18,0.00
2012-1-19,28,22,16,26,18,9,94,83,71,30.16,29.85,11,2,14,0.01
2012-1-20,21,17,11,16,10,7,91,74,59,30.36,30.11,6,1,9,0.00
2012-1-21,25,20,11,22,17,9,93,87,77,30.37,30.03,7,1,10,0.00
2012-1-22,16,12,11,15,10,8,94,91,90,30.35,30.32,1,0,4,0.00
2012-1-23,54,44,34,51,40,29,92,86,78,29.91,29.56,14,3,20,0.71
2012-1-24,35,32,31,30,28,26,93,85,80,30.37,29.91,12,1,16,0.00
2012-1-25,32,31,30,28,26,25,90,82,78,30.42,30.22,6,0,6,0.00
2012-1-26,45,35,30,44,34,28,98,96,90,30.22,29.50,6,0,7,0.73
2012-1-27,46,35,30,46,34,29,99,96,88,30.05,29.41,10,1,13,0.29
2012-1-28,34,31,28,32,27,19,97,84,63,30.16,29.87,15,2,17,0.00
2012-1-29,38,30,27,30,23,17,92,73,57,30.27,29.94,17,2,19,0.03
2012-1-30,27,23,19,20,18,16,88,81,68,30.34,30.27,6,1,9,0.00
2012-1-31,59,53,44,47,39,32,83,59,46,30.09,29.92,11,3,16,0.00
2012-2-1,51,45,35,47,41,33,96,86,72,30.12,29.90,11,2,15,0.32
2012-2-2,36,35,32,35,32,29,95,88,82,30.46,30.09,7,1,7,0.00
2012-2-3,32,28,26,30,26,24,95,94,91,30.56,30.46,0,0,1,0.00
2012-2-4,39,35,31,33,31,28,92,82,73,30.27,30.17,4,1,8,0.00
2012-2-5,42,32,26,32,28,25,97,84,61,30.29,30.17,5,0,9,0.00
2012-2-6,30,29,27,28,26,25,93,91,89,30.25,30.22,2,0,2,0.00
2012-2-8,28,25,24,21,20,19,83,80,75,30.29,30.26,1,0,4,0.00
2012-2-9,39,27,22,24,21,18,91,79,45,30.31,30.20,7,1,14,0.00
2012-2-10,31,29,28,26,23,19,92,78,67,30.20,29.90,9,2,9,0.00
2012-2-11,29,20,16,27,18,11,95,88,77,30.22,29.79,15,4,19,0.00
2012-2-12,24,20,16,20,16,13,91,83,70,30.21,30.16,9,1,12,0.00
2012-2-13,36,27,19,20,16,12,90,65,42,30.22,30.07,8,1,9,0.05
2012-2-14,34,32,29,32,29,19,100,88,62,30.09,29.92,6,1,10,0.06
2012-2-15,42,35,32,34,30,28,94,82,66,30.30,30.09,7,1,9,0.00
2012-2-16,44,40,36,44,38,32,100,93,83,30.17,29.95,10,1,13,0.24
2012-2-17,40,34,30,33,27,20,95,75,48,30.17,30.11,9,1,13,0.01
2012-2-18,39,34,28,32,27,21,86,75,66,30.24,30.00,13,2,15,0.00
2012-2-19,29,29,28,22,21,20,74,73,71,30.22,30.20,5,1,7,0.00
2012-2-20,43,30,25,25,21,18,85,70,39,30.42,30.23,8,1,10,0.00
2012-2-21,43,37,31,40,30,21,95,78,53,30.25,29.76,13,2,18,0.10
2012-2-22,52,40,33,39,35,31,95,83,45,29.80,29.45,15,2,15,0.02
2012-2-23,43,36,30,37,33,29,100,89,61,29.69,29.47,6,0,7,0.58
2012-2-24,45,37,32,42,34,28,97,89,66,29.75,29.33,21,2,29,0.04
2012-2-25,32,29,27,29,26,24,96,89,79,30.36,29.75,13,2,15,0.00
2012-2-26,39,32,27,25,22,20,84,67,52,30.50,30.25,8,1,11,0.04
2012-2-27,52,38,29,32,25,22,79,62,41,30.50,30.16,13,2,19,0.00
2012-2-28,46,34,24,30,25,22,95,72,44,30.54,30.31,7,0,8,0.00
2012-2-29,55,50,43,53,48,42,97,94,87,29.57,29.52,10,1,11,0.35
2012-3-1,51,39,37,43,34,30,89,80,68,29.95,29.54,16,1,16,0.00
2012-3-2,53,42,31,51,38,29,97,85,65,29.95,29.33,15,2,19,0.37
2012-3-3,47,36,31,39,28,23,80,73,64,29.79,29.41,16,3,23,0.00
2012-3-4,32,30,26,27,25,23,93,83,71,29.93,29.77,11,2,13,0.00
2012-3-5,27,24,20,23,20,16,95,82,70,30.52,29.92,9,2,12,0.00
2012-3-6,50,35,19,29,23,16,92,65,39,30.55,30.27,11,2,14,0.00
2012-3-7,66,55,47,45,35,26,59,46,37,30.32,30.09,14,3,21,0.00
2012-3-8,58,49,34,53,42,27,95,79,57,30.17,29.86,14,4,19,0.28
2012-3-9,36,32,26,31,24,16,92,72,53,30.54,30.16,15,3,20,0.00
2012-3-10,44,37,24,24,19,12,66,48,34,30.62,30.40,9,2,11,0.00
2012-3-11,66,49,31,37,28,22,77,46,25,30.44,30.29,9,1,13,0.00
2012-3-12,58,50,41,55,44,32,96,82,50,30.29,29.95,12,2,14,0.44
2012-3-13,68,59,50,56,49,36,97,73,48,30.11,29.91,11,1,13,0.19
2012-3-14,75,56,38,51,41,31,83,60,33,30.22,30.11,7,1,9,0.00
2012-3-15,73,63,51,59,54,47,93,72,53,30.13,30.02,12,2,15,0.73
2012-3-16,64,58,53,59,56,52,97,93,81,30.15,29.99,7,0,9,0.14
2012-3-17,79,65,50,60,52,46,98,68,36,30.23,30.13,6,1,9,0.00
2012-3-18,75,64,58,61,57,49,97,78,55,30.17,30.07,7,1,11,0.82
2012-3-19,76,62,53,63,57,53,100,86,54,30.16,30.08,4,0,5,0.00
2012-3-20,82,68,57,62,58,55,93,74,45,30.20,30.11,6,0,7,0.00
2012-3-21,84,68,55,60,55,51,93,68,36,30.23,30.10,8,1,9,0.00
2012-3-22,83,68,55,61,55,51,95,67,37,30.18,30.07,8,1,9,0.00
2012-3-23,85,68,54,60,53,47,93,65,29,30.09,29.86,7,0,10,0.07
2012-3-24,67,61,54,61,58,52,97,89,68,29.88,29.79,6,1,7,0.08
2012-3-25,57,51,47,53,49,45,100,92,73,30.03,29.83,8,1,11,0.00
2012-3-26,49,37,32,47,28,19,91,71,45,30.41,30.03,13,4,16,0.00
2012-3-27,53,40,26,26,22,16,83,51,26,30.44,30.00,8,1,12,0.00
2012-3-28,75,60,48,54,40,24,70,49,28,30.00,29.68,16,3,19,0.00
2012-3-29,48,40,36,37,32,30,79,74,66,30.17,29.91,11,3,12,0.00
2012-3-30,53,41,32,44,35,28,94,79,56,30.16,29.72,9,1,11,0.13
2012-3-31,40,38,36,38,35,34,96,92,82,30.02,29.79,9,1,9,0.00
2012-4-1,59,44,36,47,39,34,93,83,62,29.98,29.71,9,2,12,0.03
2012-4-2,55,44,35,39,34,26,94,72,38,30.07,29.84,8,1,11,0.00
2012-4-3,61,42,31,42,33,27,87,71,44,30.07,29.87,11,0,11,0.00
2012-4-4,53,47,39,43,35,26,76,62,42,29.96,29.87,14,2,15,0.00
2012-4-5,47,39,31,36,31,26,94,73,51,30.11,29.92,11,2,13,0.00
2012-4-6,50,41,31,32,28,12,94,65,23,30.28,30.10,11,2,13,0.00
2012-4-7,58,43,27,33,25,14,94,56,19,30.37,30.19,7,1,10,0.00
2012-4-8,57,49,37,44,32,22,81,55,27,30.19,30.00,16,3,17,0.00
2012-4-9,58,50,41,40,34,26,82,55,33,30.02,29.80,13,3,19,0.00
2012-4-10,48,39,33,35,32,27,95,77,44,30.00,29.81,9,1,12,0.10
2012-4-11,44,37,33,36,34,32,100,87,69,30.23,29.98,9,2,12,0.27
2012-4-12,54,42,30,38,31,28,99,69,39,30.30,30.18,9,1,9,0.00
2012-4-13,63,46,31,36,32,27,91,60,27,30.33,30.21,7,1,10,0.00
2012-4-14,55,47,41,54,39,33,96,73,50,30.22,29.99,5,1,11,0.06
2012-4-15,80,70,55,62,57,54,96,66,46,29.99,29.87,11,2,18,0.08
2012-4-16,78,69,53,62,54,41,72,60,38,30.14,29.76,15,3,22,0.00
2012-4-17,53,49,40,42,38,31,84,66,51,30.35,30.14,7,1,11,0.00
2012-4-18,64,48,35,40,35,32,92,64,33,30.35,30.07,6,1,8,0.00
2012-4-19,72,58,43,52,46,38,88,65,45,30.08,29.92,6,1,9,0.00
2012-4-20,77,64,49,53,49,45,89,60,39,29.92,29.68,13,2,16,0.00
2012-4-21,49,40,39,45,38,37,96,93,85,30.00,29.75,8,2,9,0.27
2012-4-22,44,41,40,38,36,34,92,83,72,30.00,29.83,11,2,14,0.00
2012-4-23,47,43,41,37,29,21,85,60,38,29.83,29.56,20,5,23,0.00
2012-4-24,55,46,35,36,28,19,81,52,26,29.70,29.49,14,2,19,0.00
2012-4-25,65,52,36,43,34,29,90,53,29,29.88,29.70,7,1,10,0.00
2012-4-26,56,50,42,53,45,35,95,83,65,29.99,29.63,12,1,14,0.11
2012-4-27,46,40,33,36,28,23,81,63,41,30.29,29.99,9,2,12,0.00
2012-4-28,45,38,30,38,31,27,92,77,58,30.32,30.17,5,0,8,0.06
2012-4-29,60,45,28,36,27,16,97,58,20,30.37,30.26,8,1,10,0.00
2012-4-30,78,56,38,62,43,24,96,64,36,30.28,29.86,9,1,12,1.04
2012-5-1,59,58,53,59,57,52,98,97,96,30.03,29.88,5,0,7,0.07
2012-5-2,84,69,54,69,62,53,99,79,52,30.00,29.91,8,1,14,0.02
2012-5-3,88,74,62,69,65,60,97,75,44,30.04,29.90,6,1,10,0.00
2012-5-4,83,74,65,66,64,62,91,72,52,29.97,29.89,7,1,10,0.00
2012-5-5,73,63,57,62,58,56,96,86,59,29.99,29.91,7,1,12,0.00
2012-5-6,74,59,43,52,42,30,95,59,24,30.10,29.99,7,1,9,0.00
2012-5-7,78,63,53,66,55,42,96,76,60,30.02,29.76,4,0,9,0.33
2012-5-8,64,60,56,62,58,53,98,93,72,29.84,29.75,5,0,6,0.74
2012-5-9,66,55,48,56,50,44,98,84,51,29.84,29.75,7,1,10,0.10
2012-5-10,58,51,42,46,42,37,97,73,46,30.02,29.82,9,1,10,0.00
2012-5-11,68,54,38,47,40,35,96,65,30,30.22,30.03,6,0,7,0.00
2012-5-12,76,61,46,52,46,41,91,61,32,30.28,30.19,6,0,8,0.00
2012-5-13,76,64,53,57,52,48,87,66,41,30.20,30.12,4,0,6,0.00
2012-5-14,72,60,49,58,51,48,97,75,49,30.12,30.00,5,0,6,0.00
2012-5-15,79,62,47,58,48,34,98,65,27,30.02,29.90,5,0,10,0.00
2012-5-16,67,59,53,55,51,48,92,76,51,30.00,29.86,6,1,8,0.00
2012-5-17,64,58,43,42,35,24,77,44,26,30.24,30.18,7,1,8,0.00
2012-5-18,80,59,39,51,43,36,93,61,24,30.20,30.09,6,0,7,0.00
2012-5-19,86,67,48,56,50,44,92,60,26,30.18,30.11,5,0,6,0.00
2012-5-20,89,70,54,62,56,49,91,65,27,30.19,30.04,4,0,6,0.00
2012-5-21,87,69,59,66,58,53,95,72,35,30.05,29.87,4,0,9,0.12
2012-5-22,60,57,53,56,54,51,93,89,84,29.97,29.92,3,0,6,0.00
2012-5-23,79,71,60,61,58,56,88,65,51,29.98,29.90,4,0,7,0.00
2012-5-24,84,71,57,67,60,55,97,73,47,29.99,29.87,8,1,9,0.00
2012-5-25,89,75,65,71,65,61,90,72,50,29.99,29.91,8,1,8,0.00
2012-5-26,81,76,68,64,60,56,72,57,42,30.21,30.10,5,0,7,0.00
2012-5-27,88,71,62,71,62,54,96,76,53,30.15,29.98,5,0,10,0.16
2012-5-28,91,75,66,75,69,65,98,83,49,29.99,29.80,5,0,11,0.00
2012-5-29,80,75,68,71,68,61,96,79,57,29.81,29.73,5,0,9,0.27
2012-5-30,73,67,57,53,50,46,79,55,40,29.86,29.80,7,1,10,0.00
2012-5-31,70,60,54,56,52,46,93,75,58,29.98,29.83,7,0,13,0.00
2012-6-1,65,58,53,64,56,48,100,93,66,29.87,29.52,7,0,12,0.62
2012-6-2,69,58,48,57,48,44,89,73,48,29.80,29.70,7,1,11,0.05
2012-6-3,76,65,56,56,51,44,83,64,33,29.79,29.70,9,1,12,0.00
2012-6-4,66,59,50,54,51,47,94,76,55,29.88,29.75,6,1,9,0.00
2012-6-5,64,59,50,53,50,47,89,73,58,30.00,29.88,7,0,9,0.00
2012-6-6,72,60,45,54,49,44,97,71,45,30.06,30.00,7,0,7,0.00
2012-6-7,75,64,53,57,52,48,96,68,39,30.07,30.02,5,0,6,0.00
2012-6-8,79,66,52,60,51,42,94,63,29,30.05,29.94,5,0,7,0.00
2012-6-9,85,73,61,59,54,48,72,53,34,29.99,29.91,7,0,10,0.00
2012-6-10,91,80,66,63,59,55,75,50,33,30.07,29.98,5,0,8,0.00
2012-6-11,80,72,65,68,64,59,94,77,57,30.03,29.90,8,0,10,0.01
2012-6-12,81,73,64,71,64,48,96,75,35,30.03,29.83,9,1,11,0.00
2012-6-13,68,61,52,55,49,43,85,66,45,30.18,30.03,5,1,9,0.00
2012-6-14,80,65,51,59,52,44,94,67,29,30.24,30.15,7,0,10,0.00
2012-6-15,87,72,56,64,58,54,94,66,38,30.21,30.14,6,0,8,0.00
2012-6-16,87,75,61,63,60,56,85,62,39,30.23,30.03,9,0,9,0.00
2012-6-17,81,72,66,70,65,59,97,80,64,30.05,29.84,6,1,12,0.55
2012-6-18,86,72,65,72,67,64,98,87,54,29.96,29.85,5,0,7,0.12
2012-6-19,91,79,67,70,68,65,91,70,46,30.08,29.96,9,0,9,0.00
2012-6-20,93,81,69,70,67,64,89,65,41,30.14,29.98,6,0,6,0.00
2012-6-21,93,81,71,69,66,60,87,62,37,30.00,29.79,11,1,11,0.00
2012-6-22,78,70,63,68,65,55,96,86,45,29.96,29.86,7,0,7,0.02
2012-6-23,79,68,56,62,55,48,96,67,37,30.08,29.96,5,0,8,0.00
2012-6-24,86,71,58,64,57,53,88,65,38,30.07,29.84,4,0,6,0.00
2012-6-25,70,65,59,63,56,47,90,72,50,29.99,29.84,11,1,12,0.00
2012-6-26,75,65,51,55,52,48,94,66,42,30.03,29.94,6,1,10,0.00
2012-6-27,82,70,54,61,54,49,93,62,34,30.03,29.87,6,0,10,0.00
2012-6-28,96,87,66,74,67,54,77,54,35,29.90,29.67,5,0,8,0.00
2012-6-29,92,81,70,75,67,53,85,65,28,29.83,29.68,5,0,6,0.00
2012-6-30,92,82,66,66,63,56,79,55,34,29.82,29.77,5,0,7,0.00
2012-7-1,83,74,67,68,64,58,93,75,44,29.98,29.81,4,0,7,0.02
2012-7-2,89,75,61,70,62,55,97,68,34,30.03,29.93,8,0,8,0.00
2012-7-3,82,72,67,72,66,60,97,79,63,30.00,29.83,9,0,12,0.21
2012-7-4,93,86,70,77,73,69,99,68,50,29.92,29.78,5,0,7,0.56
2012-7-5,86,77,68,75,70,66,98,81,56,29.98,29.86,7,0,13,0.21
2012-7-6,93,81,70,78,70,62,97,73,39,29.96,29.91,7,0,7,0.00
2012-7-7,96,82,70,78,71,66,91,71,44,29.94,29.84,6,1,8,0.00
2012-7-8,82,74,68,70,65,59,95,75,50,30.00,29.91,8,0,8,0.00
2012-7-9,83,72,60,63,59,56,95,66,42,30.05,29.98,8,0,8,0.00
2012-7-10,84,71,60,65,56,45,93,64,31,30.12,30.01,10,0,10,0.00
2012-7-11,86,71,57,61,56,54,96,63,36,30.15,30.09,11,0,11,0.00
2012-7-12,90,75,60,68,61,52,89,64,39,30.14,30.07,6,0,8,0.00
2012-7-13,82,72,69,66,60,55,85,66,47,30.17,30.11,8,0,8,0.00
2012-7-14,80,78,73,70,69,66,85,73,67,30.13,30.05,6,0,6,0.00
2012-7-15,85,77,71,75,71,67,96,81,63,30.08,29.96,6,0,6,0.26
2012-7-16,88,79,70,73,66,55,95,68,37,30.00,29.88,7,0,7,0.00
2012-7-17,94,84,72,73,68,60,81,61,43,29.90,29.77,5,0,8,0.00
2012-7-18,90,81,72,74,71,67,92,73,52,29.95,29.79,9,0,9,0.00
2012-7-19,79,72,68,74,69,67,96,90,76,29.95,29.86,7,0,7,0.86
2012-7-20,71,68,65,67,64,60,94,87,77,30.05,29.88,14,0,14,0.00
2012-7-21,79,65,59,65,61,58,97,87,60,30.11,30.04,5,0,5,0.00
2012-7-23,92,88,82,72,67,65,73,50,44,29.99,29.84,9,2,9,0.00
2012-7-24,82,74,64,72,61,53,78,64,51,29.96,29.82,10,1,10,0.00
2012-7-25,89,74,58,66,58,52,96,62,30,30.00,29.70,9,1,9,0.00
2012-7-26,90,79,70,76,72,65,96,79,57,29.71,29.60,15,0,15,0.27
2012-7-27,84,74,66,74,70,64,98,87,53,29.92,29.69,8,0,8,0.44
2012-7-28,76,70,66,71,67,64,99,91,72,30.08,29.85,10,0,10,1.08
2012-7-29,81,71,62,69,60,51,98,73,36,30.11,30.04,6,0,6,0.00
2012-7-30,88,73,60,69,62,56,93,72,40,30.06,29.95,5,0,5,0.00
2012-7-31,87,74,64,70,64,61,94,73,48,29.96,29.83,8,0,8,0.00
2012-8-1,83,73,63,68,62,55,96,73,42,29.91,29.86,9,0,9,0.00
2012-8-2,91,73,58,66,60,54,97,69,29,29.94,29.87,5,0,5,0.00
2012-8-3,94,79,64,70,65,61,91,66,38,29.98,29.90,9,0,9,0.00
2012-8-4,91,80,68,73,70,65,93,71,53,30.02,29.91,11,1,11,0.00
2012-8-5,82,75,69,74,69,62,95,83,60,30.06,29.89,14,1,14,0.21
2012-8-6,82,72,61,63,58,53,94,66,42,30.16,30.04,7,0,7,0.00
2012-8-7,89,70,55,61,55,46,87,61,33,30.05,29.94,8,0,8,0.00
2012-8-8,89,74,60,69,63,57,92,71,46,29.98,29.90,6,0,6,0.00
2012-8-9,81,70,62,72,65,60,96,85,63,29.97,29.77,6,0,6,0.88
2012-8-10,76,67,61,69,63,56,98,90,74,29.77,29.67,7,0,7,1.02
2012-8-11,66,62,58,63,59,55,97,91,82,29.95,29.73,11,0,11,0.03
2012-8-12,75,67,60,64,61,58,96,82,56,30.03,29.95,8,0,8,0.01
2012-8-13,81,68,60,65,60,55,95,77,44,30.05,29.96,5,0,5,0.01
2012-8-14,70,66,62,67,63,61,97,92,86,29.96,29.87,4,0,4,0.19
2012-8-15,79,68,58,66,61,57,98,81,51,30.00,29.92,7,0,7,0.00
2012-8-16,85,72,58,67,62,57,98,74,49,30.01,29.81,9,0,9,0.00
2012-8-17,75,70,61,65,61,54,89,74,51,29.94,29.82,7,0,7,0.00
2012-8-18,75,64,55,58,55,52,96,73,46,30.02,29.94,9,0,9,0.00
2012-8-19,77,63,54,67,56,48,95,79,49,29.98,29.88,5,0,5,0.20
2012-8-20,72,63,55,65,58,54,98,84,60,30.02,29.90,8,0,8,0.03
2012-8-21,74,62,53,63,57,51,98,83,55,30.13,30.02,7,0,7,0.00
2012-8-22,82,66,53,63,56,52,98,74,41,30.19,30.11,7,0,7,0.00
2012-8-23,85,68,55,63,57,53,96,71,42,30.18,30.11,7,0,7,0.00
2012-8-24,88,72,58,65,59,56,95,68,36,30.17,30.08,10,0,10,0.00
2012-8-25,89,74,61,68,62,59,94,68,38,30.17,30.10,5,0,7,0.00
2012-8-26,88,74,62,67,62,56,85,67,45,30.20,30.05,8,0,8,0.00
2012-8-27,72,69,66,72,67,62,98,93,83,30.07,29.93,5,0,5,1.20
2012-8-28,76,69,62,69,63,58,99,84,56,30.08,29.98,10,0,10,0.00
2012-8-29,74,64,55,61,57,52,98,79,55,30.13,30.05,8,0,8,0.00
2012-8-30,86,66,50,60,53,42,98,69,24,30.16,30.05,6,0,6,0.00
2012-8-31,92,75,58,70,62,54,91,68,43,30.10,30.00,5,0,7,0.00
2012-9-1,86,77,70,73,69,65,94,79,63,30.10,30.01,5,0,5,0.01
2012-9-2,81,73,68,73,70,66,98,90,75,30.07,29.95,5,0,5,1.86
2012-9-3,89,74,64,76,70,63,98,86,62,29.98,29.88,6,0,6,0.10
2012-9-4,79,72,68,75,71,67,98,96,84,29.94,29.82,5,0,5,1.14
2012-9-5,84,72,64,72,67,63,99,87,60,29.93,29.82,7,0,7,0.00
2012-9-6,87,74,66,72,68,65,97,85,55,29.92,29.85,5,0,5,0.00
2012-9-7,85,70,63,72,65,62,98,85,60,29.92,29.69,7,0,7,0.02
2012-9-8,69,64,59,66,59,52,98,85,60,29.86,29.52,8,0,8,1.17
2012-9-9,68,60,53,58,54,46,97,81,47,30.09,29.85,9,0,9,0.03
2012-9-10,69,56,48,57,50,46,98,80,47,30.24,30.09,9,0,9,0.00
2012-9-11,79,60,46,56,50,44,98,74,39,30.31,30.23,6,0,6,0.00
2012-9-12,83,65,50,60,55,48,97,73,39,30.32,30.23,8,0,8,0.00
2012-9-13,84,69,57,67,61,56,95,78,49,30.31,30.20,6,0,6,0.00
2012-9-14,72,61,50,66,58,49,97,91,78,30.29,30.17,7,0,7,0.08
2012-9-15,68,57,49,60,50,42,100,81,45,30.32,30.22,7,0,8,0.00
2012-9-16,77,58,44,56,50,43,98,76,41,30.22,30.09,5,0,5,0.00
2012-9-17,76,61,48,60,53,47,95,76,44,30.10,29.80,6,0,6,0.00
2012-9-18,66,60,52,63,57,44,97,89,72,29.93,29.57,7,0,7,0.31
2012-9-19,65,53,43,47,43,38,93,71,39,30.19,29.93,8,0,8,0.00
2012-9-20,71,59,45,54,47,41,88,66,48,30.12,29.92,11,1,11,0.00
2012-9-21,71,62,53,56,52,44,96,73,41,29.98,29.80,10,0,10,0.25
2012-9-22,64,53,46,55,51,45,100,93,64,30.08,29.72,18,0,18,0.64
2012-9-23,54,48,45,50,46,44,98,92,71,30.25,30.07,6,0,6,0.25
2012-9-24,62,50,42,46,42,37,98,77,44,30.28,30.05,10,0,10,0.19
2012-9-25,67,56,48,56,48,41,95,75,55,30.08,29.95,11,0,11,0.09
2012-9-26,63,61,57,62,60,56,98,97,94,30.13,29.93,6,0,6,0.79
2012-9-27,59,55,50,58,52,49,98,91,75,30.23,30.13,4,0,4,0.01
2012-9-28,63,53,45,53,47,43,99,83,53,30.18,30.10,9,0,9,0.00
2012-9-29,65,53,42,54,47,41,98,83,51,30.13,29.95,6,0,6,0.00
2012-9-30,63,52,45,54,48,43,100,86,58,29.97,29.89,6,0,7,0.02
2012-10-1,67,52,41,54,47,40,99,84,53,29.99,29.85,7,0,7,0.01
2012-10-2,69,60,54,66,59,52,98,95,88,29.90,29.81,4,0,4,0.26
2012-10-3,73,64,56,64,60,54,98,87,62,30.15,29.88,13,0,13,0.07
2012-10-4,75,62,55,59,55,54,96,82,54,30.17,30.09,10,0,10,0.00
2012-10-5,65,59,48,60,56,46,99,89,79,30.09,29.95,5,0,6,0.39
2012-10-6,54,48,43,47,41,36,98,81,54,30.13,29.92,12,1,12,0.19
2012-10-7,46,43,39,43,40,36,96,90,70,30.19,30.08,5,0,5,0.15
2012-10-8,52,41,34,42,36,32,100,84,54,30.29,30.18,8,0,9,0.00
2012-10-9,59,44,33,42,37,32,98,79,47,30.23,29.99,10,0,10,0.00
2012-10-10,52,47,45,46,41,29,96,80,54,30.18,29.88,10,1,10,0.07
2012-10-11,58,47,38,37,34,30,80,60,41,30.29,30.12,12,1,13,0.00
2012-10-12,52,45,33,43,35,30,91,68,47,30.46,30.15,10,1,10,0.00
2012-10-13,62,47,32,56,39,29,93,75,48,30.46,30.02,11,1,11,0.13
2012-10-14,74,64,57,62,59,55,96,83,60,30.04,29.58,17,2,17,0.21
2012-10-15,65,52,48,60,48,43,93,84,75,29.91,29.56,16,1,17,0.05
2012-10-16,58,49,45,43,41,39,89,74,53,30.01,29.86,8,0,8,0.00
2012-10-17,71,57,44,53,46,41,89,68,45,29.89,29.69,8,1,8,0.00
2012-10-18,63,56,49,51,47,44,93,74,59,29.78,29.55,15,1,15,0.14
2012-10-19,61,51,44,47,43,36,95,78,41,29.76,29.60,6,1,13,0.13
2012-10-20,51,48,45,46,44,43,95,88,78,29.95,29.67,9,1,9,0.03
2012-10-21,59,48,41,46,42,39,97,82,58,30.16,29.95,9,0,9,0.00
2012-10-22,74,54,38,56,46,36,98,78,47,30.18,30.04,8,0,8,0.00
2012-10-23,64,61,58,62,58,53,98,91,75,30.06,29.99,4,0,4,1.06
2012-10-24,78,64,57,62,58,55,98,83,53,30.11,30.01,8,0,8,0.12
2012-10-25,81,67,56,55,52,45,90,63,30,30.08,29.95,14,1,14,0.00
2012-10-26,65,53,46,54,49,45,96,87,59,30.18,29.94,12,2,12,0.30
2012-10-27,47,46,45,46,45,42,97,94,87,30.16,30.08,12,2,12,0.50
2012-10-28,45,42,40,43,40,39,96,93,86,30.13,29.98,16,3,16,0.67
2012-10-29,42,41,40,41,40,39,96,96,95,29.98,29.42,23,5,24,0.94
2012-10-30,47,44,40,46,43,39,100,97,95,29.42,29.21,28,7,28,0.66
2012-10-31,46,41,39,45,40,38,98,97,97,29.65,29.38,7,1,13,1.15
2012-11-1,41,39,36,40,38,34,98,96,91,29.78,29.64,9,1,9,0.23
2012-11-2,41,39,36,37,33,30,96,79,71,30.06,29.77,14,3,14,0.01
2012-11-3,40,39,37,36,34,30,92,82,71,30.18,30.05,11,1,11,0.01
2012-11-4,39,37,34,34,33,30,94,85,72,30.19,30.16,7,0,7,0.00
2012-11-5,38,36,34,34,31,28,92,81,73,30.23,30.15,7,0,7,0.00
2012-11-6,46,34,27,30,27,24,92,77,51,30.21,30.00,7,0,7,0.00
2012-11-7,47,34,27,31,28,25,94,79,46,30.15,29.99,9,0,9,0.00
2012-11-8,43,35,29,34,31,27,95,86,67,30.24,30.14,11,1,11,0.00
2012-11-9,52,40,28,42,35,27,97,84,61,30.29,30.17,8,0,8,0.00
2012-11-10,58,48,44,47,44,41,96,88,61,30.24,30.17,7,0,7,0.04
2012-11-11,68,60,53,43,40,34,62,47,34,30.28,30.08,16,2,16,0.00
2012-11-12,63,52,33,55,43,27,95,73,37,30.34,29.96,17,2,17,0.48
2012-11-13,34,33,31,31,28,25,89,81,74,30.59,30.34,8,0,8,0.00
2012-11-14,38,34,27,31,28,25,93,81,65,30.64,30.46,10,0,10,0.00
2012-11-15,46,34,25,33,28,24,96,82,54,30.47,30.36,8,0,8,0.00
2012-11-16,50,36,28,39,32,27,98,86,55,30.56,30.40,9,0,9,0.00
2012-11-17,57,38,28,38,32,27,98,81,40,30.67,30.56,6,0,6,0.00
2012-11-18,57,39,28,35,31,27,97,78,39,30.59,30.47,7,0,8,0.00
2012-11-19,54,40,30,38,33,28,95,79,49,30.48,30.25,6,0,6,0.00
2012-11-20,55,43,34,40,36,32,94,79,45,30.25,30.12,5,0,5,0.00
2012-11-21,60,43,32,41,34,23,99,75,27,30.27,30.17,7,0,7,0.00
2012-11-22,62,47,32,44,38,30,96,72,49,30.25,29.98,11,1,11,0.00
2012-11-23,53,43,29,49,36,26,95,76,59,30.00,29.80,15,2,15,0.01
2012-11-24,33,31,30,27,24,22,85,74,66,30.13,29.99,16,2,16,0.00
2012-11-25,39,32,27,30,25,22,89,77,58,30.09,29.89,14,1,14,0.00
2012-11-26,40,35,30,31,29,27,92,78,60,30.29,30.02,7,0,7,0.00
2012-11-27,35,31,26,29,25,22,87,77,67,30.37,30.28,8,0,8,0.00
2012-11-28,37,31,26,27,24,21,87,76,63,30.38,30.29,9,1,9,0.00
2012-11-29,47,34,25,29,25,22,92,72,40,30.40,30.28,12,1,12,0.00
2012-11-30,52,39,30,35,30,25,89,72,49,30.32,30.17,4,0,8,0.00
2012-12-1,54,44,32,44,38,29,96,79,65,30.32,30.18,9,1,9,0.00
2012-12-2,55,53,50,54,50,44,100,90,70,30.18,29.99,12,2,12,0.55
2012-12-3,59,56,52,58,55,51,99,97,91,30.19,30.08,9,1,10,0.00
2012-12-4,60,53,41,55,50,40,100,89,79,30.12,29.94,13,2,13,0.47
2012-12-5,41,36,31,40,30,23,95,79,66,30.41,30.12,15,2,15,0.01
2012-12-6,42,33,25,31,27,23,94,80,58,30.40,30.05,9,0,9,0.00
2012-12-7,45,42,36,44,40,30,97,94,78,30.05,29.90,3,0,5,0.20
2012-12-8,49,44,38,48,43,35,100,96,91,30.16,29.80,9,1,9,0.02
2012-12-9,54,41,34,53,39,31,98,91,82,30.20,29.70,12,1,12,0.16
2012-12-10,55,42,33,54,41,31,98,96,89,29.86,29.61,13,1,13,0.27
2012-12-11,38,33,29,31,29,24,95,85,66,30.25,29.86,7,0,7,0.00
2012-12-12,44,31,26,29,25,23,92,79,51,30.47,30.25,7,0,9,0.00
2012-12-13,46,32,22,28,24,20,96,74,39,30.48,30.28,9,0,9,0.00
2012-12-14,50,36,28,32,28,23,91,73,47,30.31,30.24,8,0,8,0.00
2012-12-15,46,38,30,37,31,28,92,76,53,30.25,29.85,10,1,10,0.02
2012-12-16,57,52,46,50,46,37,94,79,69,29.85,29.65,12,1,12,0.01
2012-12-17,48,44,40,47,41,38,95,89,85,29.77,29.56,7,0,8,0.00
2012-12-18,40,37,34,39,34,31,97,90,77,29.83,29.56,14,2,14,0.57
2012-12-19,40,37,31,38,35,30,97,94,88,30.19,29.79,6,0,6,0.06
2012-12-20,47,40,31,45,37,30,97,90,73,30.17,29.31,18,2,18,0.39
2012-12-21,38,31,29,32,29,26,96,91,75,29.78,29.28,20,4,20,0.00
2012-12-22,32,30,24,27,24,20,86,79,71,30.11,29.77,21,4,21,0.00
2012-12-23,36,27,17,28,22,15,94,84,66,30.09,29.96,10,0,10,0.01
2012-12-24,38,30,21,31,26,19,95,88,70,30.06,29.83,8,0,8,0.00
2012-12-25,34,32,31,32,29,24,96,87,73,30.30,29.95,7,0,7,0.03
2012-12-26,32,28,26,28,24,21,96,87,73,30.27,29.72,14,1,14,0.00
2012-12-27,32,29,27,30,27,24,96,90,82,30.19,29.73,12,2,12,0.00
2012-12-28,32,27,23,26,24,21,93,86,76,30.22,29.97,7,0,7,0.00
2012-12-29,32,28,25,29,26,22,95,92,84,30.03,29.77,10,1,10,0.00
2012-12-30,28,24,19,27,22,16,94,89,82,30.39,30.03,10,1,10,0.00
2012-12-31,35,28,19,30,24,16,95,86,71,30.33,30.04,12,2,12,0.00
2013-1-1,31,26,22,30,22,16,94,83,76,30.15,30.04,11,1,11,0.00